Time;durP1;ratioP1;P1;durP2;ratioP2;P2;SDS_P1;SDS_P2;PMS_P1;PMS_P2;Temp;Humidity;BMP_temperature;BMP_pressure;BME280_temperature;BME280_humidity;BME280_pressure;Samples;Min_cycle;Max_cycle;Signal;HPM_P1;HPM_P2
2022/02/19 00:00:55;;;;;;;0.40;0.20;;;7.90;99.90;;;;;;4985141;28;20505;-69
2022/02/19 00:03:22;;;;;;;0.40;0.20;;;8.00;99.90;;;;;;4974092;28;20406;-70
2022/02/19 00:05:47;;;;;;;0.40;0.20;;;8.00;99.90;;;;;;4991771;28;20414;-69
2022/02/19 00:08:13;;;;;;;0.40;0.20;;;8.00;99.90;;;;;;4974924;28;20484;-69
2022/02/19 00:10:40;;;;;;;0.40;0.20;;;8.00;99.90;;;;;;4991307;28;20418;-69
2022/02/19 00:13:06;;;;;;;0.40;0.20;;;8.00;99.90;;;;;;4992434;28;20382;-70
2022/02/19 00:15:32;;;;;;;0.40;0.20;;;8.00;99.90;;;;;;4974787;28;20709;-70
2022/02/19 00:17:58;;;;;;;0.40;0.20;;;8.00;99.90;;;;;;4974073;28;20537;-70
2022/02/19 00:20:24;;;;;;;0.40;0.30;;;8.10;99.90;;;;;;4992426;28;20418;-70
2022/02/19 00:22:50;;;;;;;0.40;0.20;;;8.00;99.90;;;;;;4991165;28;20378;-70
2022/02/19 00:25:16;;;;;;;0.40;0.20;;;8.10;99.90;;;;;;4992539;28;20387;-70
2022/02/19 00:27:44;;;;;;;0.40;0.30;;;8.00;99.90;;;;;;4992134;28;20401;-69
2022/02/19 00:30:10;;;;;;;0.40;0.20;;;8.00;99.90;;;;;;4974180;28;20387;-68
2022/02/19 00:32:36;;;;;;;0.40;0.20;;;8.00;99.90;;;;;;4992220;28;20389;-69
2022/02/19 00:35:03;;;;;;;0.40;0.20;;;8.00;99.90;;;;;;4991255;28;20394;-69
2022/02/19 00:37:29;;;;;;;0.40;0.25;;;8.00;99.90;;;;;;4974570;28;20427;-69
2022/02/19 00:39:55;;;;;;;0.40;0.20;;;8.00;99.90;;;;;;4991633;28;20839;-70
2022/02/19 00:42:21;;;;;;;0.40;0.30;;;7.90;99.90;;;;;;4991493;28;20391;-69
2022/02/19 00:44:47;;;;;;;0.40;0.20;;;7.90;99.90;;;;;;4992052;28;20774;-69
2022/02/19 00:47:13;;;;;;;0.40;0.20;;;7.90;99.90;;;;;;4991433;28;20399;-69
2022/02/19 00:49:38;;;;;;;0.40;0.30;;;8.00;99.90;;;;;;4991725;28;20525;-69
2022/02/19 00:52:04;;;;;;;0.40;0.30;;;8.00;99.90;;;;;;4990985;28;20887;-70
2022/02/19 00:54:30;;;;;;;0.40;0.30;;;8.00;99.90;;;;;;4991514;28;20406;-69
2022/02/19 00:56:56;;;;;;;0.40;0.30;;;7.90;99.90;;;;;;4991151;28;20417;-69
2022/02/19 00:59:21;;;;;;;0.40;0.20;;;7.90;99.90;;;;;;4991031;28;20425;-69
2022/02/19 01:01:47;;;;;;;0.40;0.20;;;7.90;99.90;;;;;;4991363;28;20390;-69
2022/02/19 01:04:13;;;;;;;0.40;0.30;;;7.90;99.90;;;;;;4990716;28;20536;-70
2022/02/19 01:06:38;;;;;;;0.40;0.20;;;7.90;99.90;;;;;;4991887;28;20866;-69
2022/02/19 01:09:05;;;;;;;0.40;0.20;;;7.90;99.90;;;;;;4973924;28;20390;-70
2022/02/19 01:11:32;;;;;;;0.40;0.20;;;8.00;99.90;;;;;;4990496;28;20429;-69
2022/02/19 01:13:57;;;;;;;0.40;0.20;;;7.90;99.90;;;;;;4973882;28;20410;-69
2022/02/19 01:16:23;;;;;;;0.40;0.20;;;7.90;99.90;;;;;;4989976;28;20383;-69
2022/02/19 01:18:49;;;;;;;0.40;0.20;;;7.90;99.90;;;;;;4991501;28;21037;-69
2022/02/19 01:21:19;;;;;;;0.40;0.40;;;7.90;99.90;;;;;;4973639;28;20418;-69
2022/02/19 01:23:45;;;;;;;0.40;0.20;;;7.90;99.90;;;;;;4990736;28;20370;-69
2022/02/19 01:26:10;;;;;;;0.40;0.20;;;7.90;99.90;;;;;;4991399;28;20398;-69
2022/02/19 01:28:37;;;;;;;0.40;0.20;;;7.90;99.90;;;;;;4990262;28;20398;-69
2022/02/19 01:31:03;;;;;;;0.40;0.20;;;7.90;99.90;;;;;;4991126;28;20379;-69
2022/02/19 01:33:28;;;;;;;0.40;0.20;;;7.90;99.90;;;;;;4991169;28;20390;-69
2022/02/19 01:35:54;;;;;;;0.40;0.20;;;7.90;99.90;;;;;;4990422;28;20406;-69
2022/02/19 01:38:20;;;;;;;0.40;0.20;;;7.90;99.90;;;;;;4991218;28;20499;-69
2022/02/19 01:40:45;;;;;;;0.40;0.20;;;7.80;99.90;;;;;;4983487;28;20399;-69
2022/02/19 01:43:11;;;;;;;0.40;0.20;;;7.90;99.90;;;;;;4971349;28;20395;-69
2022/02/19 01:45:38;;;;;;;0.40;0.20;;;7.90;99.90;;;;;;4971029;28;20389;-69
2022/02/19 01:48:04;;;;;;;0.40;0.20;;;7.90;99.90;;;;;;4973896;28;20466;-69
2022/02/19 01:50:30;;;;;;;0.40;0.20;;;7.90;99.90;;;;;;4973361;28;20395;-69
2022/02/19 01:52:56;;;;;;;0.40;0.20;;;7.90;99.90;;;;;;4990185;28;20430;-69
2022/02/19 01:55:22;;;;;;;0.40;0.20;;;7.90;99.90;;;;;;4990782;28;20470;-70
2022/02/19 01:57:48;;;;;;;0.40;0.20;;;8.00;99.90;;;;;;4991028;28;20421;-70
2022/02/19 02:00:14;;;;;;;0.40;0.20;;;7.90;99.90;;;;;;4990694;28;20402;-69
2022/02/19 02:02:43;;;;;;;0.40;0.20;;;7.90;99.90;;;;;;4990632;28;20426;-69
2022/02/19 02:05:09;;;;;;;0.40;0.20;;;8.00;99.90;;;;;;4989996;28;20775;-69
2022/02/19 02:07:35;;;;;;;0.40;0.20;;;7.90;99.90;;;;;;4990799;28;20379;-69
2022/02/19 02:10:02;;;;;;;0.40;0.20;;;8.00;99.90;;;;;;4989420;28;20394;-70
2022/02/19 02:12:27;;;;;;;0.40;0.20;;;8.00;99.90;;;;;;4990930;28;20385;-69
2022/02/19 02:14:53;;;;;;;0.40;0.30;;;8.00;99.90;;;;;;4990708;28;20755;-69
2022/02/19 02:17:19;;;;;;;0.40;0.20;;;8.10;99.90;;;;;;4989640;28;20453;-69
2022/02/19 02:19:44;;;;;;;0.40;0.20;;;8.00;99.90;;;;;;4990671;28;20387;-69
2022/02/19 02:22:14;;;;;;;0.40;0.30;;;8.00;99.90;;;;;;4989465;28;20428;-70
2022/02/19 02:24:40;;;;;;;0.40;0.30;;;8.00;99.90;;;;;;4990655;28;20390;-69
2022/02/19 02:27:12;;;;;;;0.40;0.20;;;8.00;99.90;;;;;;4992018;28;20413;-70
2022/02/19 02:29:47;;;;;;;0.40;0.30;;;8.00;99.90;;;;;;4994313;28;20878;-69
2022/02/19 02:32:13;;;;;;;0.40;0.20;;;8.00;99.90;;;;;;4993699;28;20382;-70
2022/02/19 02:34:56;;;;;;;0.40;0.20;;;8.00;99.90;;;;;;4994270;28;20387;-69
2022/02/19 02:37:25;;;;;;;0.60;0.50;;;8.00;99.90;;;;;;4993304;28;20461;-69
2022/02/19 02:39:51;;;;;;;0.40;0.20;;;8.00;99.90;;;;;;4994178;28;20387;-69
2022/02/19 02:42:19;;;;;;;1.05;0.77;;;7.90;99.80;;;;;;4993684;28;20378;-70
2022/02/19 02:44:46;;;;;;;0.40;0.20;;;7.90;99.70;;;;;;4976696;28;20394;-70
2022/02/19 02:47:12;;;;;;;0.40;0.20;;;7.90;99.40;;;;;;4993953;28;20390;-69
2022/02/19 02:49:38;;;;;;;2.20;0.80;;;7.90;98.80;;;;;;4992974;28;20417;-67
2022/02/19 02:52:05;;;;;;;0.40;0.20;;;7.90;97.70;;;;;;4993514;28;20488;-67
2022/02/19 02:54:31;;;;;;;0.40;0.20;;;7.90;97.50;;;;;;4975465;28;20865;-67
2022/02/19 02:56:57;;;;;;;0.40;0.20;;;7.90;97.80;;;;;;4993464;28;20566;-67
2022/02/19 02:59:23;;;;;;;0.40;0.30;;;7.80;96.80;;;;;;4993750;28;20423;-68
2022/02/19 03:01:48;;;;;;;0.40;0.30;;;7.80;96.80;;;;;;4992571;28;20393;-68
2022/02/19 03:04:14;;;;;;;0.40;0.20;;;7.80;96.40;;;;;;4993739;28;20382;-67
2022/02/19 03:06:40;;;;;;;0.40;0.20;;;7.80;96.50;;;;;;4992739;28;20383;-68
2022/02/19 03:09:05;;;;;;;0.40;0.20;;;7.70;96.40;;;;;;4993347;28;20775;-68
2022/02/19 03:11:31;;;;;;;0.40;0.20;;;7.80;95.80;;;;;;4975661;28;20422;-68
2022/02/19 03:13:57;;;;;;;0.40;0.20;;;7.80;94.90;;;;;;4992729;28;20391;-68
2022/02/19 03:16:22;;;;;;;0.70;0.70;;;7.80;95.20;;;;;;4993169;28;20449;-68
2022/02/19 03:18:48;;;;;;;0.40;0.30;;;7.80;94.90;;;;;;4992342;28;20410;-68
2022/02/19 03:21:14;;;;;;;0.70;0.50;;;7.70;94.80;;;;;;4975928;28;20410;-68
2022/02/19 03:23:39;;;;;;;0.40;0.30;;;7.70;94.80;;;;;;4993069;28;20743;-68
2022/02/19 03:26:08;;;;;;;0.40;0.30;;;7.70;95.10;;;;;;4992379;28;20721;-68
2022/02/19 03:28:36;;;;;;;0.40;0.20;;;7.70;95.20;;;;;;4993289;28;20428;-68
2022/02/19 03:31:02;;;;;;;0.40;0.20;;;7.70;94.60;;;;;;4992138;28;20931;-68
2022/02/19 03:33:27;;;;;;;0.40;0.20;;;7.70;94.30;;;;;;4975488;28;20453;-68
2022/02/19 03:35:54;;;;;;;0.40;0.20;;;7.60;94.50;;;;;;4993119;28;20779;-68
2022/02/19 03:38:21;;;;;;;0.40;0.20;;;7.60;94.50;;;;;;4992624;28;20429;-68
2022/02/19 03:40:47;;;;;;;0.40;0.20;;;7.60;94.80;;;;;;4993082;28;20395;-69
2022/02/19 03:43:13;;;;;;;0.40;0.20;;;7.60;94.30;;;;;;4992164;28;20398;-68
2022/02/19 03:45:41;;;;;;;0.40;0.20;;;7.60;93.90;;;;;;4975419;28;20390;-68
2022/02/19 03:48:07;;;;;;;0.40;0.20;;;7.60;93.70;;;;;;4992202;28;20394;-70
2022/02/19 03:50:33;;;;;;;0.40;0.20;;;7.60;93.00;;;;;;4992952;28;20473;-69
2022/02/19 03:52:59;;;;;;;0.40;0.20;;;7.50;92.70;;;;;;4975222;28;20394;-68
2022/02/19 03:55:24;;;;;;;0.50;0.50;;;7.40;93.40;;;;;;4992011;28;20453;-69
2022/02/19 03:57:50;;;;;;;0.40;0.20;;;7.50;92.60;;;;;;4992342;28;20891;-68
2022/02/19 04:00:16;;;;;;;0.40;0.20;;;7.50;92.70;;;;;;4991904;28;20387;-71
2022/02/19 04:02:43;;;;;;;0.40;0.20;;;7.40;92.50;;;;;;4975182;28;20921;-68
2022/02/19 04:05:10;;;;;;;0.40;0.20;;;7.40;92.60;;;;;;4992538;28;20391;-68
2022/02/19 04:07:36;;;;;;;0.40;0.20;;;7.30;92.70;;;;;;4991735;28;20465;-68
2022/02/19 04:10:04;;;;;;;0.40;0.20;;;7.40;92.60;;;;;;4992199;28;20397;-68
2022/02/19 04:12:29;;;;;;;0.40;0.20;;;7.40;92.60;;;;;;4991469;28;20417;-68
2022/02/19 04:14:55;;;;;;;0.70;0.70;;;7.40;92.50;;;;;;4992399;28;20383;-68
2022/02/19 04:17:22;;;;;;;0.40;0.20;;;7.40;91.90;;;;;;4992248;28;20475;-68
2022/02/19 04:19:53;;;;;;;0.40;0.30;;;7.40;91.90;;;;;;4991552;28;20479;-68
2022/02/19 04:22:22;;;;;;;0.40;0.20;;;7.30;92.40;;;;;;4991926;28;20403;-68
2022/02/19 04:24:49;;;;;;;1.60;1.50;;;7.40;92.30;;;;;;4991398;28;20390;-69
2022/02/19 04:27:16;;;;;;;0.40;0.20;;;7.40;92.10;;;;;;4992166;28;20756;-68
2022/02/19 04:29:41;;;;;;;0.40;0.20;;;7.30;92.30;;;;;;4991222;28;20878;-68
2022/02/19 04:32:08;;;;;;;0.40;0.20;;;7.20;92.20;;;;;;4992340;28;20383;-68
2022/02/19 04:34:34;;;;;;;0.40;0.20;;;7.20;92.00;;;;;;4992423;28;20748;-68
2022/02/19 04:37:00;;;;;;;0.40;0.20;;;7.20;92.00;;;;;;4991778;28;20405;-68
2022/02/19 04:39:25;;;;;;;0.40;0.20;;;7.20;92.20;;;;;;4992015;28;20422;-68
2022/02/19 04:41:51;;;;;;;0.40;0.20;;;7.20;92.50;;;;;;4991082;28;20390;-68
2022/02/19 04:44:17;;;;;;;0.60;0.50;;;7.10;92.70;;;;;;4992284;28;20521;-68
2022/02/19 04:46:43;;;;;;;0.40;0.20;;;7.10;92.80;;;;;;4992191;28;20837;-68
2022/02/19 04:49:09;;;;;;;0.40;0.20;;;7.10;92.90;;;;;;4990609;28;20394;-68
2022/02/19 04:51:36;;;;;;;0.40;0.20;;;7.00;93.30;;;;;;4992227;28;20400;-68
2022/02/19 04:54:02;;;;;;;0.40;0.20;;;7.00;93.10;;;;;;4973644;28;20412;-69
2022/02/19 04:56:28;;;;;;;0.40;0.20;;;7.00;93.00;;;;;;4992132;28;20382;-68
2022/02/19 04:58:53;;;;;;;0.90;0.50;;;7.00;92.50;;;;;;4991774;28;20517;-67
2022/02/19 05:01:19;;;;;;;0.40;0.20;;;7.10;92.60;;;;;;4991195;28;20460;-70
2022/02/19 05:03:45;;;;;;;0.40;0.20;;;7.10;92.60;;;;;;4991847;28;20375;-68
2022/02/19 05:06:14;;;;;;;0.40;0.20;;;7.10;92.70;;;;;;4991186;28;20421;-70
2022/02/19 05:08:41;;;;;;;0.40;0.20;;;7.10;92.80;;;;;;4991527;28;20391;-67
2022/02/19 05:11:07;;;;;;;0.40;0.20;;;7.00;92.80;;;;;;4991635;28;20442;-67
2022/02/19 05:13:33;;;;;;;0.40;0.20;;;7.10;92.90;;;;;;4990921;28;20626;-67
2022/02/19 05:15:59;;;;;;;0.40;0.20;;;7.10;93.10;;;;;;4991492;28;20937;-67
2022/02/19 05:18:24;;;;;;;0.70;0.50;;;7.10;92.40;;;;;;4990771;28;20905;-68
2022/02/19 05:20:50;;;;;;;0.40;0.20;;;7.10;92.60;;;;;;4991663;28;20403;-69
2022/02/19 05:23:16;;;;;;;7.20;0.70;;;7.20;92.50;;;;;;4991539;28;20458;-68
2022/02/19 05:25:43;;;;;;;0.40;0.20;;;7.10;92.80;;;;;;4990514;28;20390;-68
2022/02/19 05:28:09;;;;;;;0.40;0.20;;;7.10;92.50;;;;;;4991479;28;20520;-69
2022/02/19 05:30:36;;;;;;;0.40;0.20;;;7.10;92.70;;;;;;4990735;28;20496;-68
2022/02/19 05:33:02;;;;;;;0.40;0.30;;;7.20;92.70;;;;;;4991465;28;20409;-68
2022/02/19 05:35:28;;;;;;;0.40;0.20;;;7.10;92.90;;;;;;4991038;28;20897;-70
2022/02/19 05:37:54;;;;;;;0.40;0.30;;;7.00;93.30;;;;;;4990704;28;20414;-69
2022/02/19 05:40:19;;;;;;;0.40;0.20;;;7.00;93.80;;;;;;4991442;28;20852;-70
2022/02/19 05:42:45;;;;;;;0.40;0.20;;;7.00;94.20;;;;;;4990616;28;20418;-69
2022/02/19 05:45:11;;;;;;;0.40;0.20;;;7.00;94.20;;;;;;4991199;28;20492;-68
2022/02/19 05:47:36;;;;;;;0.43;0.43;;;6.90;94.80;;;;;;4974002;28;20477;-68
2022/02/19 05:50:03;;;;;;;0.40;0.30;;;6.90;95.00;;;;;;4990300;28;20426;-68
2022/02/19 05:52:29;;;;;;;0.40;0.20;;;6.90;95.30;;;;;;4990750;28;20496;-67
2022/02/19 05:54:55;;;;;;;0.40;0.20;;;7.00;95.40;;;;;;4990477;28;20792;-67
2022/02/19 05:57:22;;;;;;;0.40;0.20;;;6.90;95.50;;;;;;4991091;28;20394;-68
2022/02/19 05:59:49;;;;;;;0.40;0.20;;;6.90;95.60;;;;;;4990372;28;20383;-69
2022/02/19 06:02:15;;;;;;;0.40;0.20;;;6.90;96.00;;;;;;4992797;28;20816;-68
2022/02/19 06:04:40;;;;;;;0.40;0.20;;;6.90;96.00;;;;;;4994865;28;20391;-68
2022/02/19 06:07:06;;;;;;;0.40;0.20;;;6.90;96.10;;;;;;4994346;28;20378;-68
2022/02/19 06:09:32;;;;;;;0.40;0.20;;;6.90;96.10;;;;;;4977510;28;20390;-68
2022/02/19 06:11:57;;;;;;;0.40;0.20;;;6.90;96.20;;;;;;4957160;28;20444;-68
2022/02/19 06:14:23;;;;;;;3.20;2.90;;;6.80;96.30;;;;;;4974109;28;20396;-68
2022/02/19 06:16:49;;;;;;;0.40;0.30;;;6.80;96.30;;;;;;4975522;28;20388;-67
2022/02/19 06:19:17;;;;;;;0.40;0.30;;;6.80;96.30;;;;;;4974482;28;20490;-68
2022/02/19 06:21:43;;;;;;;0.40;0.20;;;6.80;96.50;;;;;;4975412;28;20432;-68
2022/02/19 06:24:08;;;;;;;0.40;0.20;;;6.80;96.60;;;;;;4973223;28;20400;-68
2022/02/19 06:26:34;;;;;;;0.40;0.20;;;6.80;96.60;;;;;;4975374;28;20380;-68
2022/02/19 06:29:01;;;;;;;0.40;0.20;;;6.80;96.90;;;;;;4975242;28;20483;-68
2022/02/19 06:31:26;;;;;;;0.40;0.20;;;6.70;97.20;;;;;;4973323;28;20885;-69
2022/02/19 06:33:52;;;;;;;0.40;0.30;;;6.60;97.30;;;;;;4973177;28;20482;-68
2022/02/19 06:36:18;;;;;;;0.40;0.20;;;6.60;97.80;;;;;;4973061;28;20398;-69
2022/02/19 06:38:46;;;;;;;0.40;0.30;;;6.60;98.10;;;;;;4975070;28;20407;-70
2022/02/19 06:41:12;;;;;;;0.40;0.30;;;6.60;98.50;;;;;;4975172;28;20404;-70
2022/02/19 06:43:38;;;;;;;0.40;0.20;;;6.60;98.90;;;;;;4974713;28;20403;-68
2022/02/19 06:46:04;;;;;;;0.40;0.25;;;6.50;99.30;;;;;;4974317;28;20389;-68
2022/02/19 06:48:30;;;;;;;0.40;0.20;;;6.50;99.40;;;;;;4971822;28;20483;-69
2022/02/19 06:50:56;;;;;;;0.40;0.20;;;6.50;99.60;;;;;;4961207;28;20408;-68
2022/02/19 06:53:22;;;;;;;0.40;0.20;;;6.60;99.50;;;;;;4964518;28;20454;-69
2022/02/19 06:55:48;;;;;;;1.00;1.00;;;6.60;99.20;;;;;;4966039;28;20400;-68
2022/02/19 06:58:14;;;;;;;0.40;0.20;;;6.50;99.10;;;;;;4965201;28;20412;-68
2022/02/19 07:00:40;;;;;;;0.40;0.30;;;6.60;97.30;;;;;;4957732;28;20404;-69
2022/02/19 07:03:06;;;;;;;0.40;0.30;;;6.60;97.80;;;;;;4955600;28;20426;-69
2022/02/19 07:05:32;;;;;;;0.40;0.30;;;6.50;98.60;;;;;;4955313;29;20476;-70
2022/02/19 07:07:57;;;;;;;0.40;0.20;;;6.50;99.10;;;;;;4955216;29;20394;-68
2022/02/19 07:10:23;;;;;;;0.40;0.20;;;6.40;99.80;;;;;;4964992;28;20402;-68
2022/02/19 07:12:51;;;;;;;0.40;0.30;;;6.40;99.90;;;;;;4976585;28;21661;-68
2022/02/19 07:15:20;;;;;;;0.90;0.70;;;6.40;99.90;;;;;;4974626;28;20400;-70
2022/02/19 07:17:51;;;;;;;0.40;0.20;;;6.40;99.80;;;;;;4973473;28;20416;-68
2022/02/19 07:20:19;;;;;;;0.40;0.20;;;6.50;99.60;;;;;;4973986;28;20939;-68
2022/02/19 07:22:45;;;;;;;0.40;0.20;;;6.50;98.20;;;;;;4976051;28;20413;-69
2022/02/19 07:25:10;;;;;;;0.40;0.20;;;6.50;97.50;;;;;;4992170;28;20386;-68
2022/02/19 07:27:38;;;;;;;0.40;0.20;;;6.60;97.70;;;;;;4993461;28;20394;-68
2022/02/19 07:30:05;;;;;;;0.40;0.20;;;6.60;97.70;;;;;;4984346;28;20396;-68
2022/02/19 07:32:31;;;;;;;0.40;0.20;;;6.60;97.70;;;;;;4977705;28;20386;-68
2022/02/19 07:34:58;;;;;;;0.50;0.50;;;6.60;97.80;;;;;;4992740;28;20898;-68
2022/02/19 07:37:24;;;;;;;0.40;0.20;;;6.60;97.50;;;;;;4984761;28;20816;-68
2022/02/19 07:39:51;;;;;;;0.40;0.20;;;6.60;97.80;;;;;;4993298;28;20472;-69
2022/02/19 07:42:16;;;;;;;0.45;0.35;;;6.60;97.10;;;;;;4992593;28;20429;-69
2022/02/19 07:44:42;;;;;;;0.40;0.20;;;6.60;97.50;;;;;;4993157;28;20817;-69
2022/02/19 07:47:08;;;;;;;0.40;0.20;;;6.60;97.20;;;;;;4992342;28;20898;-69
2022/02/19 07:58:18;;;;;;;0.70;0.35;;;6.70;97.30;;;;;;4988009;28;20472;-69
2022/02/19 08:00:48;;;;;;;0.40;0.20;;;6.70;97.80;;;;;;4990059;28;20402;-69
2022/02/19 08:03:15;;;;;;;0.40;0.20;;;6.80;98.10;;;;;;4984499;28;20391;-68
2022/02/19 08:05:42;;;;;;;0.40;0.20;;;6.70;97.90;;;;;;4992383;28;20387;-67
2022/02/19 08:08:08;;;;;;;0.40;0.20;;;6.70;98.10;;;;;;4991552;28;20477;-70
2022/02/19 08:10:35;;;;;;;0.40;0.20;;;6.80;97.80;;;;;;4990779;28;20582;-68
2022/02/19 08:13:02;;;;;;;0.40;0.20;;;6.90;97.90;;;;;;4955647;28;20413;-68
2022/02/19 08:15:28;;;;;;;0.40;0.20;;;6.80;97.60;;;;;;4986938;28;20393;-69
2022/02/19 08:17:54;;;;;;;0.40;0.20;;;6.70;98.30;;;;;;4991110;28;20406;-68
2022/02/19 08:20:19;;;;;;;0.40;0.20;;;6.70;98.90;;;;;;4991290;28;20398;-70
2022/02/19 08:22:45;;;;;;;0.40;0.20;;;6.70;99.70;;;;;;4990854;28;20419;-68
2022/02/19 08:25:11;;;;;;;0.40;0.20;;;6.70;99.90;;;;;;4990353;28;20819;-69
2022/02/19 08:27:39;;;;;;;0.40;0.20;;;6.80;99.90;;;;;;4972638;28;20395;-67
2022/02/19 08:30:07;;;;;;;0.40;0.20;;;6.70;99.90;;;;;;4991470;28;20390;-69
2022/02/19 08:32:33;;;;;;;0.40;0.20;;;6.80;99.90;;;;;;4986760;28;20776;-71
2022/02/19 08:34:58;;;;;;;0.40;0.20;;;6.90;99.90;;;;;;4991395;28;20393;-68
2022/02/19 08:37:25;;;;;;;0.70;0.70;;;6.90;99.90;;;;;;4990659;28;20521;-67
2022/02/19 08:39:51;;;;;;;0.40;0.30;;;7.00;99.90;;;;;;4990109;28;20399;-68
2022/02/19 08:42:17;;;;;;;0.40;0.20;;;7.00;99.90;;;;;;4986555;28;20478;-69
2022/02/19 08:44:43;;;;;;;0.40;0.20;;;7.00;99.90;;;;;;4990562;28;20473;-69
2022/02/19 08:47:09;;;;;;;0.40;0.20;;;7.10;99.90;;;;;;4990724;28;20744;-69
2022/02/19 08:49:34;;;;;;;0.40;0.30;;;7.10;99.50;;;;;;4991030;28;20390;-68
2022/02/19 08:52:01;;;;;;;0.40;0.20;;;7.10;99.30;;;;;;4988605;28;20394;-69
2022/02/19 08:54:27;;;;;;;0.40;0.20;;;7.20;98.80;;;;;;4991143;28;20407;-69
2022/02/19 08:56:54;;;;;;;0.40;0.20;;;7.10;99.00;;;;;;4989004;28;20394;-68
2022/02/19 08:59:21;;;;;;;0.50;0.50;;;7.20;99.00;;;;;;4990841;28;20417;-67
2022/02/19 09:01:47;;;;;;;0.40;0.20;;;7.20;98.20;;;;;;4989512;28;20395;-69
2022/02/19 09:04:14;;;;;;;0.40;0.40;;;7.30;98.50;;;;;;4990903;28;20409;-69
2022/02/19 09:06:39;;;;;;;0.40;0.20;;;7.40;97.80;;;;;;4989958;28;20512;-69
2022/02/19 09:09:08;;;;;;;0.40;0.30;;;7.40;97.50;;;;;;4985326;28;20489;-69
2022/02/19 09:11:35;;;;;;;0.40;0.20;;;7.20;97.80;;;;;;4969232;28;20825;-70
2022/02/19 09:14:04;;;;;;;0.40;0.20;;;7.30;97.90;;;;;;4989602;28;20863;-70
2022/02/19 09:16:32;;;;;;;0.40;0.30;;;7.30;98.20;;;;;;4990737;28;20387;-71
2022/02/19 09:18:58;;;;;;;0.40;0.20;;;7.10;98.00;;;;;;4989847;28;20492;-70
2022/02/19 09:21:25;;;;;;;0.40;0.20;;;7.10;97.60;;;;;;4990253;28;20402;-70
2022/02/19 09:23:51;;;;;;;1.20;0.80;;;7.00;98.00;;;;;;4990462;28;20387;-69
2022/02/19 09:26:17;;;;;;;0.40;0.20;;;7.10;98.20;;;;;;4989736;28;20402;-69
2022/02/19 09:28:43;;;;;;;0.40;0.20;;;7.20;97.50;;;;;;4972193;28;20895;-69
2022/02/19 09:31:09;;;;;;;0.40;0.20;;;7.30;97.50;;;;;;4989912;28;20422;-69
2022/02/19 09:33:35;;;;;;;0.40;0.20;;;7.50;97.20;;;;;;4989936;28;20382;-69
2022/02/19 09:36:01;;;;;;;1.50;0.90;;;7.80;96.90;;;;;;4989704;28;20402;-68
2022/02/19 09:38:26;;;;;;;0.40;0.20;;;7.90;95.30;;;;;;4989182;28;20446;-68
2022/02/19 09:40:54;;;;;;;0.40;0.20;;;7.90;95.70;;;;;;4972530;28;20422;-68
2022/02/19 09:43:19;;;;;;;0.40;0.20;;;8.00;95.60;;;;;;4986102;28;20400;-68
2022/02/19 09:45:47;;;;;;;0.60;0.40;;;8.20;95.00;;;;;;4990390;28;20386;-69
2022/02/19 09:48:16;;;;;;;0.40;0.20;;;7.80;94.40;;;;;;4989042;28;20391;-69
2022/02/19 09:50:44;;;;;;;0.40;0.20;;;7.90;94.50;;;;;;4990368;28;20398;-68
2022/02/19 09:53:11;;;;;;;0.60;0.60;;;7.80;93.50;;;;;;4982672;28;20895;-68
2022/02/19 09:55:37;;;;;;;0.40;0.20;;;8.00;92.80;;;;;;4989795;28;20408;-68
2022/02/19 09:58:04;;;;;;;0.40;0.20;;;7.80;92.70;;;;;;4988814;28;20418;-68
2022/02/19 10:00:36;;;;;;;0.40;0.20;;;8.00;92.90;;;;;;4972376;28;20529;-69
2022/02/19 10:03:02;;;;;;;0.40;0.28;;;8.10;91.90;;;;;;4990329;28;20441;-68
2022/02/19 10:05:32;;;;;;;0.40;0.20;;;8.10;92.20;;;;;;4985516;28;20392;-69
2022/02/19 10:08:06;;;;;;;0.40;0.20;;;8.30;91.80;;;;;;4989460;28;20871;-70
2022/02/19 10:10:35;;;;;;;0.40;0.20;;;8.20;90.70;;;;;;4989042;28;20488;-70
2022/02/19 10:13:01;;;;;;;0.40;0.20;;;8.30;90.80;;;;;;4990042;28;20390;-68
2022/02/19 10:15:44;;;;;;;0.40;0.20;;;8.40;90.50;;;;;;4990112;28;20819;-69
2022/02/19 10:18:32;;;;;;;0.40;0.20;;;8.50;90.10;;;;;;4989052;28;20502;-69
2022/02/19 10:21:15;;;;;;;0.60;0.60;;;8.50;89.40;;;;;;4988212;28;20431;-69
2022/02/19 10:23:46;;;;;;;0.40;0.20;;;8.40;89.40;;;;;;4989257;28;20395;-68
2022/02/19 10:26:14;;;;;;;0.40;0.20;;;8.40;90.00;;;;;;4985950;28;20411;-68
2022/02/19 10:28:40;;;;;;;0.40;0.30;;;8.50;90.00;;;;;;4988763;28;20391;-70
2022/02/19 10:31:14;;;;;;;0.40;0.20;;;8.50;88.30;;;;;;4989569;28;20414;-70
2022/02/19 10:33:39;;;;;;;0.40;0.20;;;8.50;87.70;;;;;;4989069;28;20484;-71
2022/02/19 10:36:16;;;;;;;0.50;0.40;;;8.70;87.60;;;;;;4988923;28;20395;-68
2022/02/19 10:38:56;;;;;;;0.40;0.20;;;8.80;87.40;;;;;;4971883;28;20470;-69
2022/02/19 10:41:36;;;;;;;0.40;0.20;;;8.70;85.70;;;;;;4987212;28;20390;-69
2022/02/19 10:44:24;;;;;;;0.40;0.30;;;8.70;85.30;;;;;;4971688;28;20414;-68
2022/02/19 10:46:52;;;;;;;0.40;0.20;;;8.70;85.70;;;;;;4986028;28;20851;-69
2022/02/19 10:49:18;;;;;;;0.40;0.30;;;8.60;86.10;;;;;;4992371;28;20398;-70
2022/02/19 10:51:44;;;;;;;0.40;0.30;;;8.50;83.80;;;;;;4972934;28;20412;-69
2022/02/19 10:54:12;;;;;;;0.40;0.20;;;8.80;81.30;;;;;;4973703;28;20765;-70
2022/02/19 10:56:38;;;;;;;0.40;0.20;;;9.10;79.00;;;;;;4992929;28;20390;-70
2022/02/19 10:59:07;;;;;;;0.40;0.20;;;9.10;77.60;;;;;;4991581;28;20430;-70
2022/02/19 11:01:52;;;;;;;0.40;0.20;;;9.20;76.60;;;;;;4989617;28;20398;-69
2022/02/19 11:04:19;;;;;;;0.40;0.20;;;8.90;76.10;;;;;;4992394;28;20387;-70
2022/02/19 11:06:45;;;;;;;0.40;0.30;;;8.90;76.50;;;;;;4993183;28;20383;-69
2022/02/19 11:09:12;;;;;;;0.40;0.20;;;9.20;75.60;;;;;;4992247;28;20518;-69
2022/02/19 11:11:43;;;;;;;0.40;0.20;;;9.50;76.50;;;;;;4992552;28;20459;-68
2022/02/19 11:14:11;;;;;;;0.40;0.20;;;9.00;73.90;;;;;;4992260;28;20387;-69
2022/02/19 11:16:38;;;;;;;0.40;0.20;;;9.00;75.80;;;;;;4992417;28;20390;-70
2022/02/19 11:19:05;;;;;;;0.40;0.20;;;8.90;76.20;;;;;;4993726;28;20425;-70
2022/02/19 11:21:32;;;;;;;0.40;0.20;;;8.70;75.80;;;;;;4993070;28;20433;-70
2022/02/19 11:24:04;;;;;;;0.40;0.20;;;8.60;75.70;;;;;;4993646;28;20705;-69
2022/02/19 11:26:31;;;;;;;0.40;0.20;;;8.80;75.00;;;;;;4989850;28;20601;-70
2022/02/19 11:29:10;;;;;;;0.40;0.20;;;9.00;75.10;;;;;;4993301;28;20852;-70
2022/02/19 11:31:39;;;;;;;0.40;0.20;;;8.80;74.60;;;;;;4992924;28;20855;-68
2022/02/19 11:34:05;;;;;;;0.40;0.20;;;8.70;75.20;;;;;;4975939;28;20398;-68
2022/02/19 11:36:33;;;;;;;0.40;0.20;;;9.20;75.80;;;;;;4992769;28;20433;-69
2022/02/19 11:39:03;;;;;;;0.40;0.28;;;10.50;72.50;;;;;;4993454;28;20418;-68
2022/02/19 11:41:40;;;;;;;0.40;0.20;;;10.60;69.20;;;;;;4959423;28;20405;-69
2022/02/19 11:44:26;;;;;;;0.40;0.30;;;10.60;70.20;;;;;;4993332;28;20379;-70
2022/02/19 11:46:53;;;;;;;0.40;0.30;;;11.10;68.30;;;;;;4993336;28;20812;-70
2022/02/19 11:49:24;;;;;;;0.40;0.20;;;11.50;67.20;;;;;;4992975;28;20386;-69
2022/02/19 11:52:18;;;;;;;0.40;0.20;;;12.10;64.10;;;;;;4992685;28;20501;-70
2022/02/19 11:54:44;;;;;;;0.40;0.20;;;11.10;65.10;;;;;;4992317;28;20391;-69
2022/02/19 11:57:13;;;;;;;0.40;0.20;;;10.70;67.30;;;;;;4975427;28;20731;-69
2022/02/19 11:59:57;;;;;;;0.40;0.20;;;12.20;65.90;;;;;;4991856;28;20911;-69
2022/02/19 12:02:23;;;;;;;0.40;0.30;;;11.40;60.50;;;;;;4988248;28;20389;-69
2022/02/19 12:05:18;;;;;;;0.40;0.20;;;11.30;63.00;;;;;;4992113;28;20399;-69
2022/02/19 12:07:57;;;;;;;0.40;0.20;;;10.70;64.90;;;;;;4991848;28;20891;-69
2022/02/19 12:10:23;;;;;;;0.40;0.20;;;10.40;67.20;;;;;;4992718;28;20493;-68
2022/02/19 12:13:09;;;;;;;0.40;0.20;;;11.70;65.00;;;;;;4991297;28;20756;-68
2022/02/19 12:15:36;;;;;;;1.20;0.90;;;11.30;63.20;;;;;;4992737;28;20385;-68
2022/02/19 12:18:03;;;;;;;0.40;0.20;;;10.60;63.80;;;;;;4991986;28;20559;-68
2022/02/19 12:20:34;;;;;;;0.40;0.20;;;10.00;66.50;;;;;;4975096;28;20421;-67
2022/02/19 12:23:02;;;;;;;0.40;0.20;;;9.90;67.20;;;;;;4986513;28;20422;-69
2022/02/19 12:26:00;;;;;;;0.40;0.20;;;11.00;65.00;;;;;;4992275;28;20553;-69
2022/02/19 12:28:26;;;;;;;0.40;0.20;;;11.10;62.50;;;;;;4992295;28;20394;-69
2022/02/19 12:31:13;;;;;;;0.40;0.30;;;11.30;63.10;;;;;;4991907;28;20387;-70
2022/02/19 12:33:39;;;;;;;0.40;0.20;;;11.10;63.10;;;;;;4992151;28;20436;-69
2022/02/19 12:36:09;;;;;;;0.40;0.20;;;10.90;65.10;;;;;;4990832;28;20937;-69
2022/02/19 12:38:36;;;;;;;0.50;0.50;;;11.10;67.90;;;;;;4992019;28;20417;-69
2022/02/19 12:41:03;;;;;;;0.40;0.20;;;11.00;65.70;;;;;;4991285;28;20529;-69
2022/02/19 12:43:29;;;;;;;0.40;0.30;;;11.20;64.70;;;;;;4991879;28;20826;-69
2022/02/19 12:45:56;;;;;;;0.40;0.20;;;12.40;63.00;;;;;;4992311;28;20410;-68
2022/02/19 12:48:23;;;;;;;0.40;0.20;;;12.80;58.10;;;;;;4990999;28;20390;-69
2022/02/19 12:50:52;;;;;;;0.40;0.20;;;12.40;58.70;;;;;;4974844;28;20480;-69
2022/02/19 12:53:24;;;;;;;0.40;0.20;;;12.40;58.40;;;;;;4991335;28;20739;-68
2022/02/19 12:55:54;;;;;;;0.40;0.20;;;12.70;57.90;;;;;;4992359;28;20379;-68
2022/02/19 12:58:20;;;;;;;0.40;0.30;;;11.90;57.30;;;;;;4991154;28;20883;-68
2022/02/19 13:00:54;;;;;;;0.40;0.20;;;12.30;57.90;;;;;;4991706;28;20395;-68
2022/02/19 13:03:20;;;;;;;0.40;0.30;;;12.60;56.90;;;;;;4991088;28;20392;-68
2022/02/19 13:05:53;;;;;;;0.40;0.30;;;13.60;56.90;;;;;;4992024;28;20391;-69